createdAt,value
2023-02-06T00:00:09.384Z,70.34
2023-02-06T00:01:10.436Z,70.24
2023-02-06T00:02:09.424Z,70.06
2023-02-06T00:03:10.375Z,69.99
2023-02-06T00:04:09.383Z,69.99
2023-02-06T00:05:09.368Z,70.61
2023-02-06T00:06:09.311Z,71.14
2023-02-06T00:07:09.344Z,70.72
2023-02-06T00:08:09.303Z,70.61
2023-02-06T00:09:09.300Z,70.72
2023-02-06T00:10:09.323Z,71.03
2023-02-06T00:11:09.292Z,71.03
2023-02-06T00:12:10.300Z,71.06
2023-02-06T00:13:09.255Z,70.96
2023-02-06T00:14:10.273Z,71.06
2023-02-06T00:15:09.233Z,71.38
2023-02-06T00:16:09.363Z,71.48
2023-02-06T00:17:10.256Z,71.45
2023-02-06T00:18:09.252Z,71.24
2023-02-06T00:19:09.187Z,70.93
2023-02-06T00:20:09.172Z,71.14
2023-02-06T00:21:10.181Z,70.93
2023-02-06T00:22:09.185Z,70.61
2023-02-06T00:23:09.131Z,70.37
2023-02-06T00:24:09.143Z,70.40
2023-02-06T00:25:09.126Z,70.17
2023-02-06T00:26:09.151Z,70.48
2023-02-06T00:27:09.108Z,70.27
2023-02-06T00:28:09.134Z,70.27
2023-02-06T00:29:09.118Z,70.17
2023-02-06T00:30:10.101Z,70.06
2023-02-06T00:31:09.185Z,69.43
2023-02-06T00:32:09.052Z,69.78
2023-02-06T00:33:09.057Z,70.20
2023-02-06T00:34:09.064Z,70.72
2023-02-06T00:35:09.005Z,70.93
2023-02-06T00:36:10.032Z,71.34
2023-02-06T00:37:09.005Z,71.56
2023-02-06T00:38:10.026Z,71.24
2023-02-06T00:39:08.974Z,70.86
2023-02-06T00:40:09.033Z,71.17
2023-02-06T00:41:09.940Z,71.45
2023-02-06T00:42:08.944Z,71.56
2023-02-06T00:43:09.946Z,71.45
2023-02-06T00:44:08.910Z,71.45
2023-02-06T00:45:08.960Z,71.34
2023-02-06T00:46:08.960Z,71.17
2023-02-06T00:47:09.938Z,71.17
2023-02-06T00:48:08.868Z,71.41
2023-02-06T00:49:08.902Z,71.31
2023-02-06T00:50:08.867Z,71.94
2023-02-06T00:51:08.878Z,72.14
2023-02-06T00:52:08.858Z,72.32
2023-02-06T00:53:08.871Z,72.22
2023-02-06T00:54:08.799Z,72.53
2023-02-06T00:55:08.832Z,72.39
2023-02-06T00:56:08.806Z,72.50
2023-02-06T00:57:08.783Z,71.97
2023-02-06T00:58:08.840Z,71.52
2023-02-06T00:59:08.807Z,71.11
2023-02-06T01:00:09.750Z,70.90
2023-02-06T01:01:08.746Z,70.68
2023-02-06T01:02:09.744Z,70.37
2023-02-06T01:03:08.735Z,70.24
2023-02-06T01:04:08.760Z,70.34
2023-02-06T01:05:08.740Z,70.13
2023-02-06T01:06:08.673Z,70.45
2023-02-06T01:07:08.663Z,70.68
2023-02-06T01:08:08.667Z,70.79
2023-02-06T01:09:08.659Z,70.90
2023-02-06T01:10:08.643Z,71.24
2023-02-06T01:11:08.705Z,71.34
2023-02-06T01:12:08.606Z,71.77
2023-02-06T01:13:08.635Z,71.77
2023-02-06T01:14:08.626Z,71.97
2023-02-06T01:15:08.585Z,72.19
2023-02-06T01:16:08.594Z,72.81
2023-02-06T01:17:08.578Z,73.33
2023-02-06T01:18:09.638Z,73.65
2023-02-06T01:19:08.525Z,72.81
2023-02-06T01:20:08.544Z,72.50
2023-02-06T01:21:08.549Z,72.60
2023-02-06T01:22:09.098Z,72.60
2023-02-06T01:23:08.496Z,72.50
2023-02-06T01:24:08.524Z,72.78
2023-02-06T01:25:08.463Z,72.29
2023-02-06T01:26:08.474Z,71.97
2023-02-06T01:27:08.473Z,71.66
2023-02-06T01:28:08.472Z,71.56
2023-02-06T01:29:09.475Z,71.45
2023-02-06T01:30:08.429Z,71.90
2023-02-06T01:31:09.431Z,72.01
2023-02-06T01:32:08.405Z,71.80
2023-02-06T01:33:09.373Z,72.04
2023-02-06T01:34:08.413Z,72.04
2023-02-06T01:35:08.370Z,72.14
2023-02-06T01:36:09.368Z,72.64
2023-02-06T01:37:09.373Z,72.67
2023-02-06T01:38:08.337Z,73.26
2023-02-06T01:39:08.355Z,72.64
2023-02-06T01:40:08.314Z,72.64
2023-02-06T01:41:08.292Z,72.64
2023-02-06T01:42:08.306Z,72.81
2023-02-06T01:43:08.283Z,72.81
2023-02-06T01:44:08.315Z,72.39
2023-02-06T01:45:08.275Z,72.60
2023-02-06T01:46:08.233Z,72.08
2023-02-06T01:47:08.238Z,71.87
2023-02-06T01:48:09.251Z,71.77
2023-02-06T01:49:08.206Z,71.62
2023-02-06T01:50:08.243Z,71.73
2023-02-06T01:51:08.180Z,71.21
2023-02-06T01:52:08.169Z,71.21
2023-02-06T01:53:08.182Z,71.31
2023-02-06T01:54:08.232Z,71.00
2023-02-06T01:55:09.167Z,70.68
2023-02-06T01:56:08.137Z,70.90
2023-02-06T01:57:08.163Z,70.90
2023-02-06T01:58:08.105Z,70.48
2023-02-06T01:59:09.135Z,70.37
2023-02-06T02:00:08.135Z,70.37
2023-02-06T02:01:08.172Z,70.58
2023-02-06T02:02:08.143Z,71.00
2023-02-06T02:03:09.068Z,70.68
2023-02-06T02:04:09.057Z,71.00
2023-02-06T02:05:08.081Z,70.68
2023-02-06T02:06:15.678Z,70.86
2023-02-06T02:07:08.015Z,70.97
2023-02-06T02:08:09.053Z,70.97
2023-02-06T02:09:08.127Z,70.86
2023-02-06T02:10:07.990Z,70.97
2023-02-06T02:11:07.988Z,70.97
2023-02-06T02:12:07.980Z,70.79
2023-02-06T02:13:07.962Z,70.48
2023-02-06T02:14:07.988Z,70.51
2023-02-06T02:15:08.937Z,70.72
2023-02-06T02:16:08.991Z,70.93
2023-02-06T02:17:07.918Z,71.03
2023-02-06T02:18:07.937Z,71.14
2023-02-06T02:19:08.919Z,71.24
2023-02-06T02:20:07.928Z,71.14
2023-02-06T02:21:08.877Z,71.34
2023-02-06T02:22:07.865Z,71.24
2023-02-06T02:23:07.850Z,71.03
2023-02-06T02:24:07.867Z,70.83
2023-02-06T02:25:07.870Z,71.24
2023-02-06T02:26:07.839Z,71.03
2023-02-06T02:27:08.813Z,71.03
2023-02-06T02:28:07.838Z,70.61
2023-02-06T02:29:07.829Z,70.72
2023-02-06T02:30:07.770Z,71.14
2023-02-06T02:31:07.813Z,70.51
2023-02-06T02:32:07.768Z,70.51
2023-02-06T02:33:07.753Z,70.43
2023-02-06T02:34:07.744Z,70.96
2023-02-06T02:35:07.742Z,71.41
2023-02-06T02:36:07.719Z,71.62
2023-02-06T02:37:07.720Z,71.76
2023-02-06T02:38:07.735Z,72.07
2023-02-06T02:39:08.600Z,72.39
2023-02-06T02:40:08.072Z,72.60
2023-02-06T02:41:07.771Z,72.70
2023-02-06T02:42:07.653Z,73.12
2023-02-06T02:43:08.684Z,73.02
2023-02-06T02:44:07.646Z,73.75
2023-02-06T02:45:07.625Z,73.93
2023-02-06T02:46:07.685Z,73.40
2023-02-06T02:47:07.618Z,73.72
2023-02-06T02:48:07.590Z,73.09
2023-02-06T02:49:07.602Z,72.35
2023-02-06T02:50:08.607Z,72.46
2023-02-06T02:51:08.564Z,72.11
2023-02-06T02:52:08.562Z,72.42
2023-02-06T02:53:08.534Z,72.32
2023-02-06T02:54:08.528Z,71.83
2023-02-06T02:55:07.573Z,71.73
2023-02-06T02:56:07.521Z,72.04
2023-02-06T02:57:08.575Z,72.28
2023-02-06T02:58:07.479Z,72.25
2023-02-06T02:59:07.496Z,72.49
2023-02-06T03:00:08.465Z,72.70
2023-02-06T03:01:07.494Z,72.91
2023-02-06T03:02:07.519Z,73.44
2023-02-06T03:03:07.454Z,72.98
2023-02-06T03:04:07.399Z,72.81
2023-02-06T03:05:07.427Z,72.60
2023-02-06T03:06:07.393Z,72.91
2023-02-06T03:07:07.413Z,72.81
2023-02-06T03:08:08.395Z,73.12
2023-02-06T03:09:07.345Z,73.65
2023-02-06T03:10:07.337Z,73.44
2023-02-06T03:11:07.324Z,72.88
2023-02-06T03:12:08.349Z,72.67
2023-02-06T03:13:07.360Z,72.88
2023-02-06T03:14:07.309Z,72.25
2023-02-06T03:15:07.292Z,72.35
2023-02-06T03:16:08.322Z,72.04
2023-02-06T03:17:08.266Z,72.32
2023-02-06T03:18:08.279Z,72.32
2023-02-06T03:19:07.281Z,71.94
2023-02-06T03:20:07.268Z,71.94
2023-02-06T03:21:07.232Z,72.22
2023-02-06T03:22:07.224Z,72.01
2023-02-06T03:23:07.224Z,72.01
2023-02-06T03:24:07.203Z,71.59
2023-02-06T03:25:07.232Z,71.48
2023-02-06T03:26:07.164Z,71.90
2023-02-06T03:27:07.173Z,71.80
2023-02-06T03:28:08.207Z,71.80
2023-02-06T03:29:07.212Z,71.80
2023-02-06T03:30:07.147Z,72.42
2023-02-06T03:31:08.167Z,72.95
2023-02-06T03:32:07.099Z,72.22
2023-02-06T03:33:07.100Z,72.50
2023-02-06T03:34:07.081Z,72.22
2023-02-06T03:35:07.128Z,72.39
2023-02-06T03:36:08.057Z,72.50
2023-02-06T03:37:07.094Z,72.60
2023-02-06T03:38:07.040Z,73.02
2023-02-06T03:39:08.052Z,72.71
2023-02-06T03:40:07.047Z,72.71
2023-02-06T03:41:07.017Z,72.36
2023-02-06T03:42:07.015Z,72.36
2023-02-06T03:43:08.045Z,72.36
2023-02-06T03:44:06.980Z,72.60
2023-02-06T03:45:07.010Z,72.92
2023-02-06T03:46:06.997Z,72.81
2023-02-06T03:47:07.950Z,73.02
2023-02-06T03:48:07.989Z,73.02
2023-02-06T03:49:07.928Z,73.09
2023-02-06T03:50:06.953Z,72.81
2023-02-06T03:51:07.949Z,72.60
2023-02-06T03:52:06.906Z,72.81
2023-02-06T03:53:06.889Z,73.30
2023-02-06T03:54:06.895Z,73.41
2023-02-06T03:55:07.870Z,72.96
2023-02-06T03:56:07.861Z,72.75
2023-02-06T03:57:06.880Z,72.75
2023-02-06T03:58:06.845Z,72.12
2023-02-06T03:59:06.829Z,71.91
2023-02-06T04:00:06.836Z,72.22
2023-02-06T04:01:06.873Z,72.02
2023-02-06T04:02:06.840Z,72.02
2023-02-06T04:03:06.790Z,72.75
2023-02-06T04:04:06.778Z,72.85
2023-02-06T04:05:06.773Z,73.06
2023-02-06T04:06:06.784Z,72.50
2023-02-06T04:07:06.780Z,72.19
2023-02-06T04:08:06.739Z,72.08
2023-02-06T04:09:06.719Z,71.77
2023-02-06T04:10:06.725Z,71.98
2023-02-06T04:11:06.703Z,72.05
2023-02-06T04:12:06.710Z,72.36
2023-02-06T04:13:07.693Z,72.16
2023-02-06T04:14:06.665Z,71.95
2023-02-06T04:15:06.664Z,72.16
2023-02-06T04:16:06.648Z,72.02
2023-02-06T04:17:06.642Z,72.64
2023-02-06T04:18:06.679Z,72.13
2023-02-06T04:19:07.608Z,71.91
2023-02-06T04:20:06.603Z,71.91
2023-02-06T04:21:06.591Z,71.70
2023-02-06T04:22:06.609Z,71.50
2023-02-06T04:23:07.591Z,71.64
2023-02-06T04:24:06.584Z,71.91
2023-02-06T04:25:06.544Z,71.53
2023-02-06T04:26:06.531Z,71.60
2023-02-06T04:27:06.562Z,71.81
2023-02-06T04:28:06.573Z,71.91
2023-02-06T04:29:06.504Z,72.13
2023-02-06T04:30:06.518Z,72.13
2023-02-06T04:31:06.636Z,71.98
2023-02-06T04:32:06.464Z,72.33
2023-02-06T04:33:07.492Z,72.02
2023-02-06T04:34:06.453Z,72.09
2023-02-06T04:35:06.445Z,71.78
2023-02-06T04:36:06.476Z,71.98
2023-02-06T04:37:06.461Z,72.19
2023-02-06T04:38:07.421Z,71.57
2023-02-06T04:39:06.405Z,71.57
2023-02-06T04:40:07.402Z,71.88
2023-02-06T04:41:06.404Z,71.88
2023-02-06T04:42:06.404Z,71.91
2023-02-06T04:43:06.352Z,71.91
2023-02-06T04:44:06.333Z,72.33
2023-02-06T04:45:06.328Z,72.64
2023-02-06T04:46:06.464Z,73.13
2023-02-06T04:47:07.348Z,73.55
2023-02-06T04:48:07.339Z,72.82
2023-02-06T04:49:06.317Z,73.03
2023-02-06T04:50:06.280Z,73.03
2023-02-06T04:51:06.278Z,72.37
2023-02-06T04:52:06.260Z,72.47
2023-02-06T04:53:07.278Z,72.37
2023-02-06T04:54:06.284Z,72.06
2023-02-06T04:55:06.210Z,72.16
2023-02-06T04:56:06.221Z,71.85
2023-02-06T04:57:06.233Z,71.50
2023-02-06T04:58:06.194Z,71.81
2023-02-06T04:59:06.180Z,71.53
2023-02-06T05:00:06.213Z,71.75
2023-02-06T05:01:06.147Z,71.88
2023-02-06T05:02:06.181Z,72.37
2023-02-06T05:03:06.172Z,72.47
2023-02-06T05:04:06.126Z,72.41
2023-02-06T05:05:06.196Z,72.68
2023-02-06T05:06:06.132Z,72.72
2023-02-06T05:07:06.095Z,73.45
2023-02-06T05:08:06.095Z,73.13
2023-02-06T05:09:06.097Z,73.45
2023-02-06T05:10:06.096Z,73.03
2023-02-06T05:11:06.058Z,73.24
2023-02-06T05:12:06.085Z,72.92
2023-02-06T05:13:06.015Z,73.24
2023-02-06T05:14:07.012Z,73.27
2023-02-06T05:15:06.006Z,73.27
2023-02-06T05:16:06.119Z,73.27
2023-02-06T05:17:06.981Z,73.48
2023-02-06T05:18:06.065Z,73.66
2023-02-06T05:19:05.971Z,73.86
2023-02-06T05:20:05.936Z,73.69
2023-02-06T05:21:06.972Z,73.69
2023-02-06T05:22:05.928Z,73.58
2023-02-06T05:23:05.940Z,73.90
2023-02-06T05:24:05.908Z,73.86
2023-02-06T05:25:06.933Z,73.86
2023-02-06T05:26:06.891Z,73.86
2023-02-06T05:27:06.892Z,74.18
2023-02-06T05:28:06.074Z,74.38
2023-02-06T05:29:05.840Z,74.32
2023-02-06T05:30:05.899Z,74.18
2023-02-06T05:31:05.905Z,73.86
2023-02-06T05:32:05.814Z,73.76
2023-02-06T05:33:05.798Z,73.86
2023-02-06T05:34:05.815Z,73.76
2023-02-06T05:35:05.809Z,74.15
2023-02-06T05:36:05.829Z,73.34
2023-02-06T05:37:05.809Z,73.97
2023-02-06T05:38:05.752Z,74.07
2023-02-06T05:39:06.776Z,73.83
2023-02-06T05:40:05.741Z,74.04
2023-02-06T05:41:05.741Z,73.72
2023-02-06T05:42:05.754Z,73.93
2023-02-06T05:43:05.689Z,73.69
2023-02-06T05:44:05.697Z,73.59
2023-02-06T05:45:05.714Z,73.49
2023-02-06T05:46:05.705Z,73.45
2023-02-06T05:47:05.688Z,73.66
2023-02-06T05:48:06.708Z,73.66
2023-02-06T05:49:05.629Z,73.03
2023-02-06T05:50:05.643Z,73.24
2023-02-06T05:51:05.612Z,72.62
2023-02-06T05:52:05.607Z,72.51
2023-02-06T05:53:05.608Z,72.62
2023-02-06T05:54:05.596Z,72.75
2023-02-06T05:55:05.608Z,73.14
2023-02-06T05:56:06.575Z,72.96
2023-02-06T05:57:05.552Z,73.07
2023-02-06T05:58:06.383Z,72.96
2023-02-06T05:59:05.530Z,73.38
2023-02-06T06:00:05.580Z,73.59
2023-02-06T06:01:06.500Z,73.76
2023-02-06T06:02:06.521Z,73.97
2023-02-06T06:03:05.486Z,73.45
2023-02-06T06:04:05.583Z,73.76
2023-02-06T06:05:05.578Z,74.21
2023-02-06T06:06:05.458Z,74.18
2023-02-06T06:07:05.467Z,73.35
2023-02-06T06:08:05.433Z,73.55
2023-02-06T06:09:05.450Z,74.07
2023-02-06T06:10:05.426Z,73.24
2023-02-06T06:11:05.436Z,73.86
2023-02-06T06:12:05.392Z,73.76
2023-02-06T06:13:05.390Z,74.60
2023-02-06T06:14:06.414Z,74.18
2023-02-06T06:15:05.450Z,74.80
2023-02-06T06:16:05.470Z,74.18
2023-02-06T06:17:05.338Z,74.29
2023-02-06T06:18:05.319Z,74.70
2023-02-06T06:19:05.352Z,74.60
2023-02-06T06:20:05.304Z,74.60
2023-02-06T06:21:06.328Z,74.60
2023-02-06T06:22:05.326Z,74.60
2023-02-06T06:23:06.268Z,74.29
2023-02-06T06:24:05.261Z,73.97
2023-02-06T06:25:05.296Z,74.18
2023-02-06T06:26:05.243Z,74.70
2023-02-06T06:27:05.251Z,74.60
2023-02-06T06:28:05.284Z,74.66
2023-02-06T06:29:05.218Z,74.80
2023-02-06T06:30:05.190Z,75.19
2023-02-06T06:31:05.411Z,75.09
2023-02-06T06:32:05.168Z,75.09
2023-02-06T06:33:05.159Z,74.98
2023-02-06T06:34:05.176Z,75.09
2023-02-06T06:35:05.156Z,75.09
2023-02-06T06:36:05.134Z,75.50
2023-02-06T06:37:05.160Z,74.98
2023-02-06T06:38:05.141Z,74.98
2023-02-06T06:39:05.112Z,75.60
2023-02-06T06:40:06.129Z,75.29
2023-02-06T06:41:05.101Z,75.36
2023-02-06T06:42:05.062Z,75.50
2023-02-06T06:43:05.090Z,75.78
2023-02-06T06:44:05.037Z,75.46
2023-02-06T06:45:05.036Z,75.67
2023-02-06T06:46:05.154Z,75.32
2023-02-06T06:47:05.009Z,75.15
2023-02-06T06:48:05.002Z,75.05
2023-02-06T06:49:05.002Z,75.46
2023-02-06T06:50:04.982Z,75.15
2023-02-06T06:51:05.992Z,75.46
2023-02-06T06:52:08.812Z,75.26
2023-02-06T06:53:06.493Z,75.22
2023-02-06T06:54:04.954Z,75.43
2023-02-06T06:55:05.000Z,75.22
2023-02-06T06:56:04.972Z,75.32
2023-02-06T06:57:05.914Z,75.12
2023-02-06T06:58:04.944Z,75.22
2023-02-06T06:59:05.439Z,75.32
2023-02-06T07:00:04.886Z,75.22
2023-02-06T07:01:05.155Z,75.12
2023-02-06T07:02:04.846Z,75.12
2023-02-06T07:03:04.897Z,75.19
2023-02-06T07:04:04.867Z,75.09
2023-02-06T07:05:05.819Z,75.01
2023-02-06T07:06:05.815Z,74.91
2023-02-06T07:07:04.912Z,75.32
2023-02-06T07:08:04.816Z,75.22
2023-02-06T07:09:05.810Z,75.12
2023-02-06T07:10:05.757Z,75.12
2023-02-06T07:11:04.761Z,75.74
2023-02-06T07:12:04.750Z,75.43
2023-02-06T07:13:04.776Z,75.74
2023-02-06T07:14:04.736Z,75.19
2023-02-06T07:15:04.721Z,75.40
2023-02-06T07:16:04.760Z,75.29
2023-02-06T07:17:05.717Z,75.19
2023-02-06T07:18:04.680Z,75.29
2023-02-06T07:19:05.703Z,75.40
2023-02-06T07:20:04.725Z,75.40
2023-02-06T07:21:04.663Z,75.09
2023-02-06T07:22:04.630Z,75.40
2023-02-06T07:23:05.631Z,75.40
2023-02-06T07:24:04.620Z,75.19
2023-02-06T07:25:04.599Z,75.19
2023-02-06T07:26:04.672Z,75.60
2023-02-06T07:27:05.592Z,74.98
2023-02-06T07:28:04.601Z,75.29
2023-02-06T07:29:04.658Z,75.09
2023-02-06T07:30:06.457Z,75.92
2023-02-06T07:31:04.536Z,75.40
2023-02-06T07:32:04.552Z,75.12
2023-02-06T07:33:04.529Z,75.64
2023-02-06T07:34:04.512Z,75.43
2023-02-06T07:35:04.520Z,75.74
2023-02-06T07:36:04.521Z,76.16
2023-02-06T07:37:05.483Z,76.68
2023-02-06T07:38:05.509Z,76.72
2023-02-06T07:39:05.456Z,76.82
2023-02-06T07:40:04.456Z,76.82
2023-02-06T07:41:05.457Z,77.34
2023-02-06T07:42:05.424Z,76.99
2023-02-06T07:43:04.452Z,77.65
2023-02-06T07:44:05.425Z,77.93
2023-02-06T07:45:04.404Z,77.83
2023-02-06T07:46:04.459Z,77.83
2023-02-06T07:47:04.387Z,77.83
2023-02-06T07:48:04.374Z,77.83
2023-02-06T07:49:04.363Z,77.79
2023-02-06T07:50:04.356Z,78.03
2023-02-06T07:51:04.394Z,77.48
2023-02-06T07:52:04.334Z,77.61
2023-02-06T07:53:04.305Z,77.83
2023-02-06T07:54:05.298Z,77.72
2023-02-06T07:55:04.315Z,77.58
2023-02-06T07:56:04.274Z,77.79
2023-02-06T07:57:04.313Z,77.79
2023-02-06T07:58:04.266Z,78.00
2023-02-06T07:59:05.273Z,77.27
2023-02-06T08:00:04.233Z,77.58
2023-02-06T08:01:04.343Z,77.79
2023-02-06T08:02:04.242Z,77.55
2023-02-06T08:03:04.242Z,77.55
2023-02-06T08:04:04.347Z,77.44
2023-02-06T08:05:04.184Z,77.55
2023-02-06T08:06:04.187Z,76.89
2023-02-06T08:07:05.161Z,76.92
2023-02-06T08:08:04.172Z,77.09
2023-02-06T08:09:04.172Z,76.78
2023-02-06T08:10:04.172Z,76.82
2023-02-06T08:11:05.107Z,76.92
2023-02-06T08:12:04.113Z,77.13
2023-02-06T08:13:04.099Z,76.68
2023-02-06T08:14:04.103Z,77.13
2023-02-06T08:15:05.147Z,76.78
2023-02-06T08:16:04.136Z,76.57
2023-02-06T08:17:04.059Z,76.57
2023-02-06T08:18:04.043Z,76.57
2023-02-06T08:19:04.033Z,76.68
2023-02-06T08:20:04.024Z,76.68
2023-02-06T08:21:05.078Z,77.30
2023-02-06T08:22:05.003Z,77.30
2023-02-06T08:23:04.025Z,77.13
2023-02-06T08:24:04.006Z,77.34
2023-02-06T08:25:03.965Z,77.61
2023-02-06T08:26:03.975Z,77.44
2023-02-06T08:27:05.007Z,77.65
2023-02-06T08:28:03.998Z,77.65
2023-02-06T08:29:03.965Z,77.92
2023-02-06T08:30:04.916Z,78.06
2023-02-06T08:31:06.523Z,77.96
2023-02-06T08:32:03.906Z,78.34
2023-02-06T08:33:03.906Z,78.23
2023-02-06T08:34:04.001Z,78.13
2023-02-06T08:35:03.873Z,77.82
2023-02-06T08:36:03.851Z,78.13
2023-02-06T08:37:03.838Z,77.61
2023-02-06T08:38:04.828Z,78.03
2023-02-06T08:39:04.886Z,78.13
2023-02-06T08:40:03.855Z,78.03
2023-02-06T08:41:04.797Z,78.34
2023-02-06T08:42:03.774Z,78.55
2023-02-06T08:43:03.789Z,78.23
2023-02-06T08:44:03.774Z,78.23
2023-02-06T08:45:04.780Z,78.13
2023-02-06T08:46:03.755Z,78.34
2023-02-06T08:47:09.988Z,78.61
2023-02-06T08:48:04.727Z,78.75
2023-02-06T08:49:03.766Z,78.72
2023-02-06T08:50:03.960Z,78.13
2023-02-06T08:51:03.682Z,78.86
2023-02-06T08:52:03.664Z,78.92
2023-02-06T08:53:03.676Z,78.61
2023-02-06T08:54:04.682Z,78.75
2023-02-06T08:55:04.635Z,78.61
2023-02-06T08:56:03.656Z,79.03
2023-02-06T08:57:03.629Z,78.82
2023-02-06T08:58:03.662Z,78.47
2023-02-06T08:59:03.616Z,78.47
2023-02-06T09:00:04.608Z,79.13
2023-02-06T09:01:04.595Z,78.78
2023-02-06T09:02:03.707Z,78.78
2023-02-06T09:03:03.549Z,78.89
2023-02-06T09:04:04.548Z,78.78
2023-02-06T09:05:04.639Z,78.99
2023-02-06T09:06:09.891Z,79.76
2023-02-06T09:07:04.564Z,80.49
2023-02-06T09:08:03.525Z,80.59
2023-02-06T09:09:03.492Z,80.76
2023-02-06T09:10:03.478Z,80.76
2023-02-06T09:11:03.498Z,80.24
2023-02-06T09:12:03.465Z,80.41
2023-02-06T09:13:03.476Z,80.04
2023-02-06T09:14:03.491Z,79.69
2023-02-06T09:15:04.423Z,79.83
2023-02-06T09:16:04.462Z,79.61
2023-02-06T09:17:04.417Z,80.35
2023-02-06T09:18:03.391Z,80.35
2023-02-06T09:19:03.464Z,79.90
2023-02-06T09:20:04.392Z,79.83
2023-02-06T09:21:03.394Z,80.24
2023-02-06T09:22:03.389Z,80.87
2023-02-06T09:23:03.342Z,79.83
2023-02-06T09:24:03.365Z,80.24
2023-02-06T09:25:04.315Z,80.66
2023-02-06T09:26:04.322Z,80.35
2023-02-06T09:27:04.316Z,80.14
2023-02-06T09:28:03.344Z,80.35
2023-02-06T09:29:03.314Z,80.62
2023-02-06T09:30:03.266Z,80.07
2023-02-06T09:31:03.481Z,80.69
2023-02-06T09:32:03.300Z,80.69
2023-02-06T09:33:03.223Z,80.66
2023-02-06T09:34:03.242Z,80.55
2023-02-06T09:35:03.226Z,80.31
2023-02-06T09:36:03.201Z,80.35
2023-02-06T09:37:03.262Z,80.21
2023-02-06T09:38:03.210Z,79.79
2023-02-06T09:39:03.152Z,79.90
2023-02-06T09:40:04.150Z,79.55
2023-02-06T09:41:03.143Z,79.48
2023-02-06T09:42:03.254Z,79.58
2023-02-06T09:43:03.132Z,80.04
2023-02-06T09:44:03.136Z,79.90
2023-02-06T09:45:03.104Z,79.79
2023-02-06T09:46:03.137Z,79.48
2023-02-06T09:47:03.102Z,79.69
2023-02-06T09:48:03.075Z,78.96
2023-02-06T09:49:03.090Z,79.79
2023-02-06T09:50:03.091Z,79.38
2023-02-06T09:51:04.031Z,79.79
2023-02-06T09:52:03.060Z,79.34
2023-02-06T09:53:03.045Z,78.92
2023-02-06T09:54:02.999Z,78.51
2023-02-06T09:55:02.976Z,79.24
2023-02-06T09:56:03.014Z,78.51
2023-02-06T09:57:02.981Z,78.61
2023-02-06T09:58:02.957Z,78.78
2023-02-06T09:59:02.944Z,78.51
2023-02-06T10:00:03.936Z,78.82
2023-02-06T10:01:03.906Z,78.82
2023-02-06T10:02:04.017Z,78.72
2023-02-06T10:03:03.923Z,78.82
2023-02-06T10:04:02.903Z,78.92
2023-02-06T10:05:02.896Z,79.13
2023-02-06T10:06:02.884Z,78.92
2023-02-06T10:07:02.855Z,78.61
2023-02-06T10:08:02.868Z,78.92
2023-02-06T10:09:03.873Z,78.82
2023-02-06T10:10:02.839Z,79.03
2023-02-06T10:11:02.849Z,78.82
2023-02-06T10:12:02.811Z,78.82
2023-02-06T10:13:02.783Z,78.58
2023-02-06T10:14:02.788Z,79.10
2023-02-06T10:15:02.786Z,78.58
2023-02-06T10:16:03.790Z,78.58
2023-02-06T10:17:03.773Z,78.23
2023-02-06T10:18:02.742Z,77.54
2023-02-06T10:19:02.728Z,78.16
2023-02-06T10:20:02.740Z,78.47
2023-02-06T10:21:02.728Z,78.51
2023-02-06T10:22:02.686Z,78.37
2023-02-06T10:23:02.711Z,77.89
2023-02-06T10:24:03.671Z,77.99
2023-02-06T10:25:03.694Z,78.92
2023-02-06T10:26:02.663Z,79.06
2023-02-06T10:27:02.642Z,78.30
2023-02-06T10:28:02.759Z,79.30
2023-02-06T10:29:02.651Z,79.38
2023-02-06T10:30:02.608Z,79.38
2023-02-06T10:31:03.729Z,79.38
2023-02-06T10:32:02.612Z,78.86
2023-02-06T10:33:02.565Z,79.41
2023-02-06T10:34:02.570Z,79.41
2023-02-06T10:35:02.562Z,79.51
2023-02-06T10:36:02.533Z,79.27
2023-02-06T10:37:02.535Z,79.38
2023-02-06T10:38:03.568Z,79.90
2023-02-06T10:39:02.514Z,79.10
2023-02-06T10:40:02.498Z,79.90
2023-02-06T10:41:02.619Z,79.58
2023-02-06T10:42:02.467Z,79.58
2023-02-06T10:43:02.465Z,78.86
2023-02-06T10:44:02.478Z,79.30
2023-02-06T10:45:18.326Z,79.41
2023-02-06T10:46:03.460Z,80.14
2023-02-06T10:47:02.467Z,80.52
2023-02-06T10:48:03.415Z,80.04
2023-02-06T10:49:02.414Z,80.31
2023-02-06T10:50:02.441Z,80.00
2023-02-06T10:51:02.382Z,79.61
2023-02-06T10:52:02.403Z,79.75
2023-02-06T10:53:03.365Z,79.75
2023-02-06T10:54:02.369Z,79.75
2023-02-06T10:55:02.337Z,79.75
2023-02-06T10:56:02.348Z,78.72
2023-02-06T10:57:02.349Z,79.79
2023-02-06T10:58:02.324Z,79.48
2023-02-06T10:59:02.315Z,79.69
2023-02-06T11:00:02.285Z,79.79
2023-02-06T11:01:05.473Z,79.69
2023-02-06T11:02:03.278Z,79.44
2023-02-06T11:03:07.402Z,79.55
2023-02-06T11:04:03.293Z,79.65
2023-02-06T11:05:03.230Z,79.48
2023-02-06T11:06:02.236Z,79.13
2023-02-06T11:07:02.203Z,79.75
2023-02-06T11:08:02.196Z,79.17
2023-02-06T11:09:02.189Z,79.96
2023-02-06T11:10:03.212Z,79.58
2023-02-06T11:11:03.279Z,79.75
2023-02-06T11:12:02.147Z,79.27
2023-02-06T11:13:02.144Z,80.41
2023-02-06T11:14:02.120Z,80.52
2023-02-06T11:15:03.113Z,80.58
2023-02-06T11:16:02.159Z,80.21
2023-02-06T11:17:02.139Z,80.27
2023-02-06T11:18:02.098Z,80.47
2023-02-06T11:19:02.202Z,79.75
2023-02-06T11:20:02.067Z,79.96
2023-02-06T11:21:02.051Z,80.06
2023-02-06T11:22:03.043Z,79.24
2023-02-06T11:23:02.080Z,79.96
2023-02-06T11:24:02.069Z,80.27
2023-02-06T11:25:03.040Z,80.16
2023-02-06T11:26:03.007Z,79.61
2023-02-06T11:27:02.979Z,79.20
2023-02-06T11:28:03.000Z,79.71
2023-02-06T11:29:02.008Z,79.30
2023-02-06T11:30:03.018Z,79.30
2023-02-06T11:31:02.036Z,79.51
2023-02-06T11:32:01.995Z,79.24
2023-02-06T11:33:04.737Z,79.27
2023-02-06T11:34:02.819Z,80.10
2023-02-06T11:35:01.933Z,79.69
2023-02-06T11:36:01.920Z,80.31
2023-02-06T11:37:01.886Z,80.62
2023-02-06T11:38:02.873Z,80.62
2023-02-06T11:39:01.864Z,80.31
2023-02-06T11:40:01.864Z,80.73
2023-02-06T11:41:01.835Z,80.58
2023-02-06T11:42:01.853Z,80.27
2023-02-06T11:43:02.817Z,80.16
2023-02-06T11:44:02.873Z,80.44
2023-02-06T11:45:01.936Z,79.75
2023-02-06T11:46:01.876Z,79.85
2023-02-06T11:47:02.785Z,80.27
2023-02-06T11:48:01.793Z,80.16
2023-02-06T11:49:01.764Z,80.00
2023-02-06T11:50:01.734Z,80.68
2023-02-06T11:51:01.732Z,80.47
2023-02-06T11:52:01.714Z,80.37
2023-02-06T11:53:01.706Z,80.58
2023-02-06T11:54:01.710Z,80.06
2023-02-06T11:55:01.709Z,80.16
2023-02-06T11:56:01.676Z,80.37
2023-02-06T11:57:01.681Z,80.58
2023-02-06T11:58:01.654Z,80.44
2023-02-06T11:59:01.655Z,80.13
2023-02-06T12:00:01.684Z,80.33
2023-02-06T12:01:01.655Z,80.02
2023-02-06T12:02:01.734Z,80.33
2023-02-06T12:03:01.641Z,79.71
2023-02-06T12:04:02.583Z,79.96
2023-02-06T12:05:01.599Z,80.06
2023-02-06T12:06:03.151Z,80.44
2023-02-06T12:07:09.175Z,79.30
2023-02-06T12:08:02.549Z,80.37
2023-02-06T12:09:01.572Z,80.37
2023-02-06T12:10:01.507Z,80.44
2023-02-06T12:11:01.542Z,80.37
2023-02-06T12:12:01.521Z,80.13
2023-02-06T12:13:01.516Z,80.02
2023-02-06T12:14:01.512Z,80.47
2023-02-06T12:15:10.264Z,80.16
2023-02-06T12:16:02.460Z,80.58
2023-02-06T12:17:01.487Z,80.62
2023-02-06T12:18:01.505Z,80.89
2023-02-06T12:19:01.460Z,80.65
2023-02-06T12:20:01.439Z,80.65
2023-02-06T12:21:01.399Z,80.16
2023-02-06T12:22:02.538Z,80.58
2023-02-06T12:23:02.368Z,80.75
2023-02-06T12:24:02.369Z,80.27
2023-02-06T12:25:01.565Z,80.54
2023-02-06T12:26:01.382Z,80.23
2023-02-06T12:27:01.327Z,80.33
2023-02-06T12:28:01.325Z,80.33
2023-02-06T12:29:02.387Z,80.33
2023-02-06T12:30:01.289Z,80.06
2023-02-06T12:31:01.477Z,79.85
2023-02-06T12:32:02.357Z,80.10
2023-02-06T12:33:02.303Z,80.83
2023-02-06T12:34:01.239Z,81.04
2023-02-06T12:35:02.259Z,80.52
2023-02-06T12:36:01.226Z,80.93
2023-02-06T12:37:01.239Z,81.24
2023-02-06T12:38:01.257Z,81.56
2023-02-06T12:39:02.201Z,81.14
2023-02-06T12:40:01.189Z,80.27
2023-02-06T12:41:02.285Z,80.62
2023-02-06T12:42:02.201Z,80.83
2023-02-06T12:43:01.160Z,80.68
2023-02-06T12:44:01.171Z,80.58
2023-02-06T12:45:02.232Z,80.58
2023-02-06T12:46:01.233Z,80.58
2023-02-06T12:47:01.132Z,80.58
2023-02-06T12:48:01.102Z,80.65
2023-02-06T12:49:02.134Z,80.54
2023-02-06T12:50:01.096Z,80.54
2023-02-06T12:51:01.112Z,80.23
2023-02-06T12:52:02.062Z,80.40